< < Back
Terminal Aerodrome Forecast


Current Version              Previous Versions:   1  2  3  4  5  6  7  8  9  

Terminal Aerodrome Forecast

502
FTUS44 KOHX 251126
TAFCSV
TAF
KCSV 251126Z 2512/2612 00000KT P6SM BKN035
     FM251400 26004KT P6SM BKN040
     FM251800 25005KT P6SM SCT040 BKN100
     FM260100 VRB02KT P6SM SCT250
     FM260600 00000KT 3SM BR SKC=

Latest METAR

285
SAUS70 KWBC 251600 RRM
MTRCSV
METAR KCSV 251553Z AUTO 22003KT 10SM FEW023 BKN042 27/22 A3024 RMK AO2
SLP217 T02720217


USA.gov is the U.S. government's official web portal to all federal, state and local government web resources and services.